Newton, NC (28658)

1:58 AM EST on November 26, 2014 (GMT -0500)
Cambridge Place Townhomes-Thornburg Drive, Conover | Change Station
CLOSE
Current Station
Personal Weather Station
Location: Conover, NC
Elevation: 1017 ft
Nearby Weather Stations

Elev 1017 ft 35.71 °N, 81.20 °W | Updated 3 minutes ago

Rain
Rain
44.8 °F
Feels Like 45 °F
N
0.0
Wind Variable Wind from SSE

Today
High -- | Low -- °F
--% Chance of Precip.
Yesterday
High -- | Low -- °F
Precip. -- in
7:11 AM 5:12 PM
Waxing Crescent, 17% visible
Pressure 29.95 in
Visibility 6.0 miles
Clouds Overcast 6000 ft
Windchill 45 °F
Dew Point 42 °F
Humidity 88%
Rainfall 0.11 in
Snow Depth Not available.
UV 0 out of 12
Pollen 1.60 out of 12
Air Quality Not available.
Flu Activity Not available.
METAR KHKY 260653Z AUTO 35006KT 6SM RA BR OVC060 07/05 A2998 RMK AO2 PRESFR SLP140 P0007 T00670050

More Conditions Fewer Conditions

Pressure 29.95 in
Visibility 6.0 miles
Clouds Overcast 6000 ft
Windchill 45 °F
Dew Point 42 °F
Humidity 88%
Rainfall 0.11 in
Snow Depth Not available.
UV 0 out of 12
Pollen 1.60 out of 12
Air Quality Not available.
Flu Activity Not available.
METAR KHKY 260653Z AUTO 35006KT 6SM RA BR OVC060 07/05 A2998 RMK AO2 PRESFR SLP140 P0007 T00670050

More Conditions Fewer Conditions

10-Day Weather Forecast

Almanac

Astronomy

Nov. 26, 2014 Rise Set
Actual Time
Civil Twilight
Nautical Twilight
Astronomical Twilight
Moon
Length of Visible Light
Length of Day
Tomorrow will be .
, % of the Moon is Illuminated

Today's Extremes

State Highs State Lows

Community

WunderPhotos

Upload Photos

1,773,691 photos uploaded!

WunderBlogs® & News

Nearby

Air Quality

  Air Quality AQ Index Pollutant
Not available.

Snow Depth

Station Depth Elevation

Earthquake Activity

City Distance Mag. Time & Date
Minimum magnitude displayed is 2.5.

Coastal Water Temperatures

Place Temperature

Nearby Weather Stations